Austin Bergstrom International Airport
KAUS : now visible

Airfield :











YOU CAN JOIN US ON...

 
LOGIN :

Register | Disclaimer

   EN    FR    IT 

 









Legend :    VFR   Marginal VFR   IFR   Intensive IFR   Very Intensive IFR
Visi :
Ceiling :
>= 8 km
>= 3000ft
5 to 8 km
1000 to 3000 ft
1500m to 5 km
500 to 1000 ft
800 to 1500m
200 to 500 ft
< 800m
< 200 ft
Symbols :   Thunderstorms  Fog  Heavy snow  Heavy precipitations  Wind > 20 kt






- Airport Elevation : 542 ft
- IATA code : AUS


KAUS - Austin Bergstrom International

CURRENT METAR :
  • 142053Z 15009KT 10SM FEW250 24/09 A2974 RMK AO2 SLP067 T02440089 56041

EXPIRED METARs :
  • 141953Z 16006KT 10SM CLR 23/09 A2978 RMK AO2 SLP081 T02280089
  • 141853Z 13006KT 10SM FEW250 21/08 A2981 RMK AO2 SLP091 T02110083

TAF KAUS
Valid from the 14 at 18:00 until the 16 at 00:00 UTC


141733Z 1418/1524 VRB03KT P6SM SKC
FM141900 15007KT P6SM SKC
FM151200 19003KT P6SM SCT010
FM151600 18012KT P6SM SCT025



MET'MAP, your aeronautical weather chart ! - Copyright ORBIFLY December 2007 - Disclaimer

ORBIFLY MET'MAP TEAM :

Programming & Development : Alexandra Zaïnal
Concept & original design : Baudouin d'Aumeries
Assistance for programming : Marc-Olivier Méhu
Technical & hardware support : Manuel Goepfert

Contact : metmap@orbifly.com




SOURCES & CREDITS :

   NOAA       Earth
Advisory